Miles, IA (52064)

2:34 AM CST on January 22, 2017 (GMT -0600)
The Island City | | Change Station
Active Advisory: Dense Fog Advisory

Elev 604 ft 42.07 °N, 90.17 °W | Updated 32 seconds ago

Fog
Fog
32.9 °F
Feels Like 33 °F
N
0.0
Wind Variable Wind from SSW

Today
High -- | Low -- °F
--% Chance of Precip.
Yesterday
High -- | Low -- °F
Precip. -- in
Pressure 29.58 in
Visibility 0.2 miles
Clouds Overcast 100 ft
Windchill 33 °F
Dew Point 32 °F
Humidity 98%
Rainfall 0.00 in
Snow Depth Not available.
7:22 AM 5:03 PM
Waning Crescent, 28% visible
METAR KSFY 220815Z AUTO 00000KT 1/4SM FZFG OVC001 00/00 A2958 RMK AO2 T10021003
Pressure 29.58 in
Visibility 0.2 miles
Clouds Overcast 100 ft
Windchill 33 °F
Dew Point 32 °F
Humidity 98%
Rainfall 0.00 in
Snow Depth Not available.
7:22 AM 5:03 PM
Waning Crescent, 28% visible
METAR KSFY 220815Z AUTO 00000KT 1/4SM FZFG OVC001 00/00 A2958 RMK AO2 T10021003

Get Your Daily Forecast Email!

Thanks for signing up!

Be on the lookout for a verification email in your inbox.

You'll start receiving the daily forecast at 8 AM.

×

10-Day Weather Forecast

Almanac

Astronomy

Jan. 22, 2017 Rise Set
Actual Time
Civil Twilight
Nautical Twilight
Astronomical Twilight
Moon
Length of Visible Light
Length of Day
Tomorrow will be .
, % of the Moon is Illuminated

Today's Extremes

State Highs State Lows

Community

WunderPhotos

Upload Photos

1,962,540 photos uploaded!

WunderBlog® & News

Nearby

Air Quality

  Air Quality AQ Index Pollutant
Not available.

Snow Depth

Station Depth Elevation

Earthquake Activity

City Distance Mag. Time & Date
Minimum magnitude displayed is 2.5.

Coastal Water Temperatures

Place Temperature

Stations

Nearby Weather Stations

Station Location Temp. Windchill Dew Point Humidity Wind Precip. Elev Updated Type
                   

Watches & Warnings

Dense Fog Advisory
Issued: 1:55 AM CST Jan. 22, 2017 – National Weather Service

... Dense fog advisory remains in effect until noon CST today...

* timing... into Sunday morning.

* Visibilities... less than 1/4 mile at times.

* Impacts... hazardous driving conditions. Slick roadways are
also possible where temperatures are near freezing.

Precautionary/preparedness actions...

A dense fog advisory means visibilities will frequently be
reduced to less than one quarter mile. If driving... slow down...
use your headlights... and leave plenty of distance ahead of you.



Uttech